createdAt,value
2023-05-10T00:00:07.313Z,8.68
2023-05-10T00:01:15.127Z,8.55
2023-05-10T00:02:17.054Z,8.70
2023-05-10T00:03:19.187Z,8.70
2023-05-10T00:04:21.672Z,9.00
2023-05-10T00:05:23.818Z,8.27
2023-05-10T00:06:25.815Z,9.50
2023-05-10T00:07:28.079Z,9.85
2023-05-10T00:08:30.030Z,9.82
2023-05-10T00:09:32.116Z,8.80
2023-05-10T00:10:34.186Z,9.00
2023-05-10T00:11:36.198Z,9.15
2023-05-10T00:12:38.631Z,9.68
2023-05-10T00:13:40.630Z,10.40
2023-05-10T00:14:42.630Z,10.15
2023-05-10T00:15:44.571Z,10.77
2023-05-10T00:16:46.625Z,10.23
2023-05-10T00:17:48.671Z,10.50
2023-05-10T00:18:50.658Z,10.30
2023-05-10T00:19:52.623Z,10.95
2023-05-10T00:20:54.601Z,10.73
2023-05-10T00:21:56.750Z,10.77
2023-05-10T00:22:58.693Z,10.30
2023-05-10T00:24:01.070Z,10.98
2023-05-10T00:25:02.992Z,10.77
2023-05-10T00:26:04.955Z,10.50
2023-05-10T00:27:07.017Z,11.38
2023-05-10T00:28:09.136Z,10.75
2023-05-10T00:29:13.195Z,10.98
2023-05-10T00:30:15.423Z,10.88
2023-05-10T00:31:17.513Z,11.45
2023-05-10T00:32:19.538Z,10.88
2023-05-10T00:33:21.832Z,10.38
2023-05-10T00:34:23.960Z,11.00
2023-05-10T00:35:26.101Z,11.32
2023-05-10T00:36:28.877Z,11.20
2023-05-10T00:37:30.903Z,11.07
2023-05-10T00:38:32.845Z,11.50
2023-05-10T00:39:34.894Z,10.60
2023-05-10T00:40:37.295Z,10.93
2023-05-10T00:41:41.823Z,10.57
2023-05-10T00:42:43.919Z,11.32
2023-05-10T00:43:46.900Z,11.52
2023-05-10T00:44:48.993Z,10.88
2023-05-10T00:45:51.187Z,11.05
2023-05-10T00:46:53.828Z,10.93
2023-05-10T00:47:57.262Z,11.48
2023-05-10T00:48:59.385Z,11.40
2023-05-10T00:50:01.980Z,10.32
2023-05-10T00:51:04.132Z,10.38
2023-05-10T00:52:06.165Z,10.77
2023-05-10T00:53:08.635Z,10.45
2023-05-10T00:54:12.457Z,9.70
2023-05-10T00:55:14.505Z,10.85
2023-05-10T00:56:17.162Z,10.63
2023-05-10T00:57:19.160Z,11.68
2023-05-10T00:58:21.123Z,10.90
2023-05-10T00:59:23.176Z,10.85
2023-05-10T01:00:25.392Z,10.18
2023-05-10T01:01:27.707Z,10.45
2023-05-10T01:02:29.898Z,9.75
2023-05-10T01:03:33.394Z,10.68
2023-05-10T01:04:36.777Z,10.13
2023-05-10T01:05:39.289Z,9.65
2023-05-10T01:06:42.017Z,9.88
2023-05-10T01:07:43.933Z,9.90
2023-05-10T01:08:45.969Z,9.43
2023-05-10T01:09:48.243Z,9.80
2023-05-10T01:10:50.526Z,9.75
2023-05-10T01:11:52.639Z,9.30
2023-05-10T01:12:54.964Z,9.65
2023-05-10T01:13:58.895Z,9.40
2023-05-10T01:15:02.257Z,10.15
2023-05-10T01:16:07.856Z,9.90
2023-05-10T01:17:11.088Z,9.95
2023-05-10T01:18:13.074Z,9.95
2023-05-10T01:19:23.890Z,10.35
2023-05-10T01:20:26.456Z,10.38
2023-05-10T01:21:39.003Z,11.27
2023-05-10T01:22:57.249Z,9.63
2023-05-10T01:24:13.887Z,9.60
2023-05-10T01:25:33.141Z,10.02
2023-05-10T01:26:56.486Z,10.13
2023-05-10T01:28:17.224Z,10.30
2023-05-10T01:29:21.103Z,10.52
2023-05-10T01:30:32.182Z,10.85
2023-05-10T01:31:54.014Z,10.82
2023-05-10T01:33:02.130Z,10.35
2023-05-10T01:34:08.086Z,10.27
2023-05-10T01:35:21.109Z,11.13
2023-05-10T01:37:49.715Z,10.30
2023-05-10T01:38:52.916Z,11.40
2023-05-10T01:40:17.439Z,11.02
2023-05-10T01:41:22.356Z,11.10
2023-05-10T01:42:30.114Z,11.45
2023-05-10T01:43:39.871Z,11.90
2023-05-10T01:44:41.856Z,12.27
2023-05-10T01:46:01.028Z,12.35
2023-05-10T01:47:07.502Z,12.23
2023-05-10T01:48:09.644Z,12.02
2023-05-10T01:49:25.243Z,12.73
2023-05-10T01:50:29.980Z,12.52
2023-05-10T01:51:46.202Z,12.82
2023-05-10T01:52:55.988Z,12.68
2023-05-10T01:54:01.805Z,12.52
2023-05-10T01:55:06.092Z,12.68
2023-05-10T01:56:09.030Z,12.02
2023-05-10T01:57:15.048Z,12.32
2023-05-10T01:58:28.580Z,12.48
2023-05-10T01:59:31.939Z,12.23
2023-05-10T02:00:34.682Z,12.75
2023-05-10T02:01:37.989Z,12.23
2023-05-10T02:02:45.875Z,12.60
2023-05-10T02:03:48.546Z,12.55
2023-05-10T02:04:51.154Z,12.07
2023-05-10T02:05:54.454Z,12.95
2023-05-10T02:06:57.736Z,11.73
2023-05-10T02:08:02.473Z,12.68
2023-05-10T02:09:05.468Z,12.38
2023-05-10T02:10:11.311Z,12.57
2023-05-10T02:11:14.600Z,12.48
2023-05-10T02:12:17.369Z,12.30
2023-05-10T02:13:19.794Z,11.88
2023-05-10T02:14:21.987Z,12.38
2023-05-10T02:15:24.491Z,11.63
2023-05-10T02:16:27.556Z,11.35
2023-05-10T02:17:31.461Z,12.52
2023-05-10T02:18:34.974Z,11.93
2023-05-10T02:19:40.070Z,12.27
2023-05-10T02:20:43.166Z,12.68
2023-05-10T02:21:46.337Z,11.85
2023-05-10T02:22:50.172Z,11.27
2023-05-10T02:23:53.330Z,11.98
2023-05-10T02:24:56.304Z,12.18
2023-05-10T02:25:59.211Z,11.90
2023-05-10T02:27:01.634Z,12.85
2023-05-10T02:28:04.812Z,12.40
2023-05-10T02:29:08.010Z,12.55
2023-05-10T02:30:11.513Z,12.52
2023-05-10T02:31:13.955Z,12.05
2023-05-10T02:32:16.382Z,10.85
2023-05-10T02:33:18.987Z,11.07
2023-05-10T02:34:22.779Z,11.23
2023-05-10T02:35:25.232Z,11.25
2023-05-10T02:36:31.325Z,11.10
2023-05-10T02:37:34.436Z,11.77
2023-05-10T02:38:40.053Z,11.75
2023-05-10T02:39:45.186Z,11.80
2023-05-10T02:40:47.909Z,11.55
2023-05-10T02:41:51.342Z,11.95
2023-05-10T02:42:55.877Z,10.98
2023-05-10T02:44:00.969Z,11.50
2023-05-10T02:45:04.621Z,11.63
2023-05-10T02:46:07.081Z,11.23
2023-05-10T02:47:11.192Z,11.30
2023-05-10T02:48:13.661Z,11.02
2023-05-10T02:49:15.931Z,10.15
2023-05-10T02:50:18.174Z,11.68
2023-05-10T02:51:21.701Z,11.07
2023-05-10T02:52:27.792Z,11.35
2023-05-10T02:53:32.422Z,11.00
2023-05-10T02:54:37.157Z,11.90
2023-05-10T02:55:40.163Z,11.38
2023-05-10T02:56:44.164Z,11.43
2023-05-10T02:57:53.654Z,12.30
2023-05-10T02:58:56.416Z,11.82
2023-05-10T02:59:58.485Z,12.27
2023-05-10T03:01:01.190Z,12.00
2023-05-10T03:02:04.436Z,12.32
2023-05-10T03:03:06.669Z,11.85
2023-05-10T03:04:09.166Z,12.88
2023-05-10T03:05:11.389Z,11.43
2023-05-10T03:06:13.439Z,10.63
2023-05-10T03:07:15.757Z,12.45
2023-05-10T03:08:17.755Z,10.80
2023-05-10T03:09:21.156Z,11.38
2023-05-10T03:10:27.690Z,11.93
2023-05-10T03:11:46.680Z,11.43
2023-05-10T03:13:07.588Z,10.45
2023-05-10T03:14:24.891Z,11.48
2023-05-10T03:15:43.635Z,10.82
2023-05-10T03:16:48.289Z,10.40
2023-05-10T03:17:56.776Z,11.73
2023-05-10T03:19:22.097Z,11.73
2023-05-10T03:20:30.498Z,11.05
2023-05-10T03:21:33.014Z,12.20
2023-05-10T03:22:39.523Z,12.15
2023-05-10T03:23:47.241Z,11.73
2023-05-10T03:24:50.223Z,11.65
2023-05-10T03:25:52.273Z,12.20
2023-05-10T03:26:56.893Z,11.85
2023-05-10T03:27:59.270Z,11.85
2023-05-10T03:29:02.267Z,11.95
2023-05-10T03:30:04.581Z,12.85
2023-05-10T03:31:09.078Z,11.65
2023-05-10T03:32:11.282Z,12.23
2023-05-10T03:33:14.466Z,11.68
2023-05-10T03:34:24.859Z,12.40
2023-05-10T03:35:27.227Z,12.07
2023-05-10T03:36:29.421Z,12.55
2023-05-10T03:37:31.564Z,11.70
2023-05-10T03:38:33.536Z,11.85
2023-05-10T03:39:35.528Z,12.15
2023-05-10T03:40:38.383Z,11.90
2023-05-10T03:41:40.346Z,11.48
2023-05-10T03:42:42.274Z,11.63
2023-05-10T03:43:44.302Z,12.98
2023-05-10T03:44:46.287Z,11.93
2023-05-10T03:45:48.253Z,12.48
2023-05-10T03:46:50.414Z,13.20
2023-05-10T03:47:52.798Z,12.70
2023-05-10T03:48:54.732Z,12.75
2023-05-10T03:49:56.860Z,11.98
2023-05-10T03:50:58.878Z,13.73
2023-05-10T03:52:00.887Z,12.77
2023-05-10T03:53:03.466Z,12.68
2023-05-10T03:54:05.441Z,12.85
2023-05-10T03:55:07.725Z,11.85
2023-05-10T03:56:09.706Z,11.73
2023-05-10T03:57:11.989Z,12.10
2023-05-10T03:58:13.903Z,11.80
2023-05-10T03:59:16.307Z,11.07
2023-05-10T04:00:18.835Z,12.48
2023-05-10T04:01:23.434Z,11.23
2023-05-10T04:02:25.714Z,11.60
2023-05-10T04:03:28.076Z,11.25
2023-05-10T04:04:30.075Z,10.68
2023-05-10T04:05:32.192Z,11.07
2023-05-10T04:06:34.317Z,10.60
2023-05-10T04:07:36.450Z,10.85
2023-05-10T04:08:38.989Z,10.68
2023-05-10T04:09:41.131Z,11.15
2023-05-10T04:10:43.093Z,11.00
2023-05-10T04:11:45.039Z,10.07
2023-05-10T04:12:47.047Z,10.00
2023-05-10T04:13:49.017Z,11.20
2023-05-10T04:14:51.057Z,11.02
2023-05-10T04:15:53.081Z,11.38
2023-05-10T04:16:55.091Z,11.13
2023-05-10T04:17:57.081Z,10.70
2023-05-10T04:18:59.198Z,11.27
2023-05-10T04:20:01.185Z,10.63
2023-05-10T04:21:03.090Z,12.00
2023-05-10T04:22:05.145Z,11.23
2023-05-10T04:23:07.175Z,12.00
2023-05-10T04:24:09.188Z,11.18
2023-05-10T04:25:11.324Z,12.10
2023-05-10T04:26:14.037Z,12.32
2023-05-10T04:27:16.025Z,11.57
2023-05-10T04:28:17.980Z,11.13
2023-05-10T04:29:19.951Z,11.73
2023-05-10T04:30:22.140Z,11.05
2023-05-10T04:31:24.248Z,11.00
2023-05-10T04:32:26.276Z,11.40
2023-05-10T04:33:28.173Z,12.32
2023-05-10T04:34:30.574Z,12.30
2023-05-10T04:35:32.546Z,11.77
2023-05-10T04:36:36.643Z,11.95
2023-05-10T04:37:38.803Z,12.70
2023-05-10T04:38:41.222Z,12.00
2023-05-10T04:39:43.303Z,10.98
2023-05-10T04:40:45.275Z,11.63
2023-05-10T04:41:47.367Z,11.38
2023-05-10T04:42:49.381Z,11.52
2023-05-10T04:43:51.472Z,11.68
2023-05-10T04:44:53.446Z,11.38
2023-05-10T04:45:57.485Z,11.90
2023-05-10T04:46:59.468Z,12.55
2023-05-10T04:48:01.443Z,11.98
2023-05-10T04:49:03.471Z,11.23
2023-05-10T04:50:05.736Z,11.30
2023-05-10T04:51:07.829Z,11.70
2023-05-10T04:52:09.820Z,11.63
2023-05-10T04:53:12.512Z,11.32
2023-05-10T04:54:15.105Z,11.82
2023-05-10T04:55:17.351Z,11.10
2023-05-10T04:56:19.314Z,11.60
2023-05-10T04:57:21.422Z,11.73
2023-05-10T04:58:23.430Z,11.38
2023-05-10T04:59:25.425Z,10.85
2023-05-10T05:00:27.330Z,11.38
2023-05-10T05:01:29.349Z,11.80
2023-05-10T05:02:32.063Z,11.05
2023-05-10T05:03:34.853Z,11.52
2023-05-10T05:04:36.965Z,11.23
2023-05-10T05:05:38.938Z,11.50
2023-05-10T05:06:40.943Z,11.32
2023-05-10T05:07:42.870Z,11.38
2023-05-10T05:08:44.845Z,11.45
2023-05-10T05:09:46.837Z,12.35
2023-05-10T05:10:51.414Z,11.10
2023-05-10T05:11:53.435Z,11.35
2023-05-10T05:12:55.412Z,10.20
2023-05-10T05:13:57.381Z,10.68
2023-05-10T05:14:59.427Z,10.70
2023-05-10T05:16:02.081Z,10.88
2023-05-10T05:17:05.078Z,9.63
2023-05-10T05:18:07.028Z,10.63
2023-05-10T05:19:09.017Z,11.25
2023-05-10T05:20:11.589Z,9.35
2023-05-10T05:21:20.063Z,9.77
2023-05-10T05:22:28.516Z,11.60
2023-05-10T05:23:30.781Z,10.18
2023-05-10T05:24:36.178Z,10.60
2023-05-10T05:25:38.183Z,10.20
2023-05-10T05:26:40.121Z,9.73
2023-05-10T05:27:42.483Z,9.88
2023-05-10T05:28:44.494Z,10.00
2023-05-10T05:29:46.449Z,10.55
2023-05-10T05:30:48.561Z,10.30
2023-05-10T05:31:50.529Z,10.30
2023-05-10T05:32:52.654Z,10.38
2023-05-10T05:33:54.679Z,9.88
2023-05-10T05:34:56.720Z,10.68
2023-05-10T05:35:58.734Z,10.77
2023-05-10T05:37:00.759Z,10.77
2023-05-10T05:38:02.764Z,10.48
2023-05-10T05:39:04.707Z,11.25
2023-05-10T05:40:07.158Z,10.32
2023-05-10T05:41:09.343Z,10.52
2023-05-10T05:42:11.877Z,10.90
2023-05-10T05:43:13.815Z,10.88
2023-05-10T05:44:15.886Z,10.80
2023-05-10T05:45:18.417Z,10.40
2023-05-10T05:46:21.093Z,11.30
2023-05-10T05:47:23.186Z,11.02
2023-05-10T05:48:25.342Z,10.95
2023-05-10T05:49:27.314Z,11.27
2023-05-10T05:50:29.352Z,11.20
2023-05-10T05:51:32.232Z,10.77
2023-05-10T05:52:34.914Z,11.35
2023-05-10T05:53:37.037Z,11.20
2023-05-10T05:54:39.010Z,12.07
2023-05-10T05:55:40.981Z,11.25
2023-05-10T05:56:43.009Z,11.88
2023-05-10T05:57:45.135Z,12.13
2023-05-10T05:58:48.094Z,11.10
2023-05-10T05:59:50.173Z,11.27
2023-05-10T06:00:53.225Z,11.85
2023-05-10T06:01:55.426Z,11.30
2023-05-10T06:02:57.591Z,11.10
2023-05-10T06:03:59.709Z,11.52
2023-05-10T06:05:01.723Z,11.77
2023-05-10T06:06:03.792Z,11.82
2023-05-10T06:07:05.808Z,12.40
2023-05-10T06:08:07.777Z,11.35
2023-05-10T06:09:10.050Z,10.68
2023-05-10T06:10:12.053Z,10.38
2023-05-10T06:11:14.115Z,11.00
2023-05-10T06:12:16.121Z,11.52
2023-05-10T06:13:18.182Z,12.45
2023-05-10T06:14:21.664Z,11.48
2023-05-10T06:15:23.708Z,11.32
2023-05-10T06:16:25.702Z,11.05
2023-05-10T06:17:27.839Z,11.35
2023-05-10T06:18:29.847Z,11.52
2023-05-10T06:19:32.062Z,11.10
2023-05-10T06:20:34.064Z,11.63
2023-05-10T06:21:36.028Z,10.60
2023-05-10T06:22:37.958Z,13.93
2023-05-10T06:23:39.882Z,12.07
2023-05-10T06:24:41.847Z,11.07
2023-05-10T06:25:43.935Z,11.20
2023-05-10T06:26:45.906Z,10.43
2023-05-10T06:27:51.755Z,11.55
2023-05-10T06:28:55.614Z,11.63
2023-05-10T06:30:09.262Z,10.75
2023-05-10T06:31:14.896Z,14.02
2023-05-10T06:32:16.882Z,10.63
2023-05-10T06:33:18.926Z,10.75
2023-05-10T06:34:21.024Z,11.13
2023-05-10T06:35:23.049Z,10.20
2023-05-10T06:36:27.561Z,11.45
2023-05-10T06:37:29.496Z,11.48
2023-05-10T06:38:31.618Z,11.48
2023-05-10T06:39:33.878Z,10.73
2023-05-10T06:40:35.966Z,22.92
2023-05-10T06:41:37.909Z,62.10
2023-05-10T06:42:39.819Z,11.82
2023-05-10T06:43:42.441Z,11.60
2023-05-10T06:44:44.749Z,12.20
2023-05-10T06:45:46.851Z,11.18
2023-05-10T06:46:48.871Z,11.35
2023-05-10T06:47:50.906Z,10.57
2023-05-10T06:48:52.889Z,11.75
2023-05-10T06:49:54.912Z,10.75
2023-05-10T06:50:56.917Z,10.55
2023-05-10T06:51:58.962Z,11.13
2023-05-10T06:53:01.465Z,10.35
2023-05-10T06:54:03.450Z,17.65
2023-05-10T06:55:06.153Z,11.45
2023-05-10T06:56:08.390Z,14.77
2023-05-10T06:57:23.474Z,12.10
2023-05-10T06:59:35.948Z,13.15
2023-05-10T07:00:41.729Z,10.45
2023-05-10T07:01:43.971Z,17.73
2023-05-10T07:02:47.318Z,16.00
2023-05-10T07:03:49.389Z,12.98
2023-05-10T07:04:53.171Z,15.85
2023-05-10T07:05:56.467Z,12.60
2023-05-10T07:06:58.947Z,12.15
2023-05-10T07:08:01.278Z,12.10
2023-05-10T07:09:03.547Z,12.18
2023-05-10T07:10:05.827Z,13.43
2023-05-10T07:11:11.861Z,12.88
2023-05-10T07:12:15.387Z,12.75
2023-05-10T07:13:17.880Z,12.60
2023-05-10T07:14:19.858Z,13.35
2023-05-10T07:15:22.042Z,13.10
2023-05-10T07:16:24.384Z,22.15
2023-05-10T07:17:26.673Z,12.23
2023-05-10T07:18:29.235Z,12.13
2023-05-10T07:19:31.267Z,13.02
2023-05-10T07:20:33.197Z,12.70
2023-05-10T07:21:36.337Z,13.07
2023-05-10T07:22:38.398Z,12.68
2023-05-10T07:23:41.302Z,12.65
2023-05-10T07:24:44.439Z,12.55
2023-05-10T07:25:47.625Z,13.10
2023-05-10T07:26:49.624Z,11.70
2023-05-10T07:27:52.230Z,11.35
2023-05-10T07:28:54.253Z,13.07
2023-05-10T07:29:57.394Z,11.55
2023-05-10T07:30:59.415Z,13.80
2023-05-10T07:32:01.560Z,26.83
2023-05-10T07:33:03.740Z,12.80
2023-05-10T07:34:06.258Z,12.25
2023-05-10T07:35:08.564Z,16.13
2023-05-10T07:36:10.529Z,12.00
2023-05-10T07:37:12.820Z,12.52
2023-05-10T07:38:14.830Z,12.07
2023-05-10T07:39:24.810Z,12.77
2023-05-10T07:40:29.677Z,16.83
2023-05-10T07:41:31.725Z,12.18
2023-05-10T07:42:33.705Z,11.65
2023-05-10T07:43:35.748Z,11.45
2023-05-10T07:44:37.768Z,12.38
2023-05-10T07:45:39.825Z,12.15
2023-05-10T07:46:41.798Z,12.68
2023-05-10T07:47:43.825Z,11.90
2023-05-10T07:48:45.805Z,12.02
2023-05-10T07:49:47.718Z,12.30
2023-05-10T07:50:49.714Z,12.63
2023-05-10T07:51:51.803Z,12.07
2023-05-10T07:52:53.768Z,12.38
2023-05-10T07:53:55.989Z,13.00
2023-05-10T07:54:58.141Z,12.93
2023-05-10T07:56:00.299Z,13.65
2023-05-10T07:57:02.339Z,12.63
2023-05-10T07:58:04.343Z,12.60
2023-05-10T07:59:08.951Z,12.63
2023-05-10T08:00:13.745Z,12.68
2023-05-10T08:01:16.206Z,13.52
2023-05-10T08:02:18.218Z,13.80
2023-05-10T08:03:20.414Z,13.55
2023-05-10T08:04:22.552Z,15.02
2023-05-10T08:05:24.588Z,14.45
2023-05-10T08:06:28.363Z,14.40
2023-05-10T08:07:30.353Z,13.25
2023-05-10T08:08:32.486Z,14.93
2023-05-10T08:09:34.654Z,13.93
2023-05-10T08:10:36.597Z,15.07
2023-05-10T08:11:38.663Z,15.25
2023-05-10T08:12:40.780Z,13.95
2023-05-10T08:13:42.909Z,14.13
2023-05-10T08:14:44.944Z,14.18
2023-05-10T08:15:47.525Z,14.35
2023-05-10T08:16:49.613Z,14.23
2023-05-10T08:17:52.888Z,14.52
2023-05-10T08:18:56.623Z,13.60
2023-05-10T08:19:58.641Z,14.57
2023-05-10T08:21:00.564Z,14.88
2023-05-10T08:22:02.567Z,15.95
2023-05-10T08:23:04.577Z,16.35
2023-05-10T08:24:06.729Z,15.85
2023-05-10T08:25:08.933Z,17.25
2023-05-10T08:26:11.093Z,17.67
2023-05-10T08:27:13.040Z,16.60
2023-05-10T08:28:15.072Z,17.48
2023-05-10T08:29:17.157Z,17.05
2023-05-10T08:30:19.185Z,16.88
2023-05-10T08:31:21.179Z,16.75
2023-05-10T08:32:23.204Z,17.75
2023-05-10T08:33:25.178Z,17.48
2023-05-10T08:34:27.473Z,17.30
2023-05-10T08:35:29.682Z,18.02
2023-05-10T08:36:31.672Z,17.23
2023-05-10T08:37:34.307Z,17.85
2023-05-10T08:38:36.359Z,17.77
2023-05-10T08:39:38.483Z,18.17
2023-05-10T08:40:44.370Z,18.48
2023-05-10T08:41:48.087Z,18.23
2023-05-10T08:42:55.106Z,17.75
2023-05-10T08:43:57.161Z,17.92
2023-05-10T08:45:00.567Z,18.33
2023-05-10T08:46:04.251Z,18.13
2023-05-10T08:47:07.895Z,18.20
2023-05-10T08:48:10.793Z,19.75
2023-05-10T08:49:13.720Z,19.30
2023-05-10T08:50:16.394Z,19.48
2023-05-10T08:51:27.850Z,19.98
2023-05-10T08:52:31.216Z,20.15
2023-05-10T08:53:34.310Z,21.15
2023-05-10T08:54:36.816Z,22.55
2023-05-10T08:55:40.053Z,19.75
2023-05-10T08:56:41.989Z,20.15
2023-05-10T08:57:44.045Z,18.77
2023-05-10T08:58:46.314Z,18.77
2023-05-10T08:59:48.524Z,18.90
2023-05-10T09:00:52.207Z,18.45
2023-05-10T09:01:55.428Z,18.65
2023-05-10T09:02:58.971Z,21.20
2023-05-10T09:04:01.205Z,19.45
2023-05-10T09:05:05.028Z,19.63
2023-05-10T09:06:08.243Z,18.95
2023-05-10T09:07:10.229Z,20.20
2023-05-10T09:08:13.190Z,20.08
2023-05-10T09:09:16.063Z,22.50
2023-05-10T09:10:18.354Z,22.33
2023-05-10T09:11:21.429Z,23.30
2023-05-10T09:12:23.792Z,22.88
2023-05-10T09:13:26.219Z,23.88
2023-05-10T09:14:28.242Z,25.27
2023-05-10T09:15:30.260Z,22.90
2023-05-10T09:16:32.222Z,23.02
2023-05-10T09:17:35.011Z,23.88
2023-05-10T09:18:37.012Z,23.25
2023-05-10T09:19:39.188Z,21.50
2023-05-10T09:20:41.505Z,21.65
2023-05-10T09:21:43.568Z,20.08
2023-05-10T09:22:45.709Z,21.13
2023-05-10T09:23:48.619Z,20.90
2023-05-10T09:25:04.451Z,22.58
2023-05-10T09:26:07.062Z,21.90
2023-05-10T09:27:09.051Z,21.50
2023-05-10T09:28:11.174Z,22.55
2023-05-10T09:29:14.192Z,22.02
2023-05-10T09:30:18.186Z,21.92
2023-05-10T09:31:20.305Z,22.00
2023-05-10T09:32:22.289Z,19.38
2023-05-10T09:33:24.686Z,21.25
2023-05-10T09:34:30.738Z,18.02
2023-05-10T09:35:33.675Z,19.88
2023-05-10T09:36:35.589Z,20.80
2023-05-10T09:37:37.932Z,19.65
2023-05-10T09:38:46.839Z,19.98
2023-05-10T09:39:48.820Z,18.33
2023-05-10T09:40:58.074Z,18.95
2023-05-10T09:42:05.094Z,19.27
2023-05-10T09:43:09.979Z,18.33
2023-05-10T09:44:11.937Z,18.45
2023-05-10T09:45:13.918Z,19.77
2023-05-10T09:46:16.422Z,19.00
2023-05-10T09:47:20.162Z,16.90
2023-05-10T09:48:24.926Z,18.55
2023-05-10T09:49:26.989Z,17.50
2023-05-10T09:50:29.452Z,15.52
2023-05-10T09:51:31.456Z,15.73
2023-05-10T09:52:55.219Z,16.52
2023-05-10T09:54:13.375Z,17.13
2023-05-10T09:55:15.794Z,16.80
2023-05-10T09:56:41.473Z,16.48
2023-05-10T09:57:43.521Z,16.35
2023-05-10T09:58:45.545Z,15.77
2023-05-10T09:59:48.244Z,17.50
2023-05-10T10:00:52.778Z,15.75
2023-05-10T10:01:57.120Z,20.10
2023-05-10T10:02:59.832Z,17.23
2023-05-10T10:04:06.025Z,18.23
2023-05-10T10:05:08.292Z,18.20
2023-05-10T10:06:18.848Z,16.55
2023-05-10T10:07:28.986Z,15.68
2023-05-10T10:08:31.092Z,17.05
2023-05-10T10:09:33.531Z,17.25
2023-05-10T10:10:35.539Z,16.48
2023-05-10T10:11:38.296Z,17.40
2023-05-10T10:12:41.444Z,15.82
2023-05-10T10:13:43.551Z,16.63
2023-05-10T10:14:45.988Z,17.73
2023-05-10T10:15:52.354Z,17.60
2023-05-10T10:17:06.553Z,17.75
2023-05-10T10:18:13.810Z,14.52
2023-05-10T10:19:16.256Z,15.60
2023-05-10T10:20:19.919Z,14.73
2023-05-10T10:21:22.519Z,14.63
2023-05-10T10:22:24.505Z,15.80
2023-05-10T10:23:26.730Z,15.07
2023-05-10T10:24:28.671Z,15.20
2023-05-10T10:25:30.725Z,16.65
2023-05-10T10:26:36.212Z,16.90
2023-05-10T10:27:53.314Z,16.50
2023-05-10T10:29:03.461Z,16.15
2023-05-10T10:30:12.914Z,15.13
2023-05-10T10:31:21.204Z,17.40
2023-05-10T10:32:30.134Z,16.58
2023-05-10T10:33:32.370Z,16.08
2023-05-10T10:34:34.688Z,16.95
2023-05-10T10:35:37.870Z,16.73
2023-05-10T10:36:46.613Z,14.95
2023-05-10T10:37:51.466Z,15.52
2023-05-10T10:38:54.199Z,15.18
2023-05-10T10:39:56.620Z,17.05
2023-05-10T10:41:10.668Z,16.05
2023-05-10T10:42:12.756Z,17.00
2023-05-10T10:43:27.907Z,17.08
2023-05-10T10:44:34.908Z,16.20
2023-05-10T10:45:41.946Z,16.35
2023-05-10T10:47:03.755Z,15.60
2023-05-10T10:48:22.571Z,15.07
2023-05-10T10:49:24.626Z,14.95
2023-05-10T10:50:26.755Z,14.45
2023-05-10T10:51:30.098Z,13.52
2023-05-10T10:52:38.820Z,14.63
2023-05-10T10:53:41.535Z,13.73
2023-05-10T10:54:48.415Z,13.80
2023-05-10T10:55:50.341Z,13.60
2023-05-10T10:57:11.279Z,12.90
2023-05-10T10:58:29.559Z,11.90
2023-05-10T10:59:31.658Z,12.90
2023-05-10T11:00:34.346Z,13.10
2023-05-10T11:01:36.799Z,13.35
2023-05-10T11:02:42.675Z,13.40
2023-05-10T11:04:07.750Z,14.60
2023-05-10T11:05:24.918Z,14.52
2023-05-10T11:06:30.768Z,14.00
2023-05-10T11:07:32.794Z,13.18
2023-05-10T11:08:38.213Z,13.55
2023-05-10T11:09:41.166Z,13.90
2023-05-10T11:10:53.789Z,13.02
2023-05-10T11:11:59.716Z,13.32
2023-05-10T11:13:02.857Z,13.88
2023-05-10T11:14:05.664Z,13.18
2023-05-10T11:15:10.380Z,12.05
2023-05-10T11:16:15.250Z,12.15
2023-05-10T11:17:28.023Z,11.00
2023-05-10T11:18:30.942Z,9.88
2023-05-10T11:19:32.883Z,9.68
2023-05-10T11:20:41.091Z,10.60
2023-05-10T11:21:53.200Z,10.27
2023-05-10T11:22:55.321Z,10.38
2023-05-10T11:23:58.601Z,11.07
2023-05-10T11:25:00.985Z,10.52
2023-05-10T11:26:03.013Z,10.15
2023-05-10T11:27:04.914Z,9.80
2023-05-10T11:28:07.365Z,9.88
2023-05-10T11:29:09.420Z,7.32
2023-05-10T11:30:12.250Z,7.75
2023-05-10T11:31:18.405Z,7.82
2023-05-10T11:32:20.881Z,7.68
2023-05-10T11:33:22.934Z,7.20
2023-05-10T11:34:29.283Z,8.43
2023-05-10T11:35:31.419Z,8.15
2023-05-10T11:36:37.322Z,7.57
2023-05-10T11:37:44.884Z,7.40
2023-05-10T11:38:47.289Z,7.30
2023-05-10T11:39:49.507Z,8.38
2023-05-10T11:40:52.916Z,7.60
2023-05-10T11:41:54.957Z,7.50
2023-05-10T11:42:57.329Z,9.15
2023-05-10T11:43:59.303Z,7.80
2023-05-10T11:45:02.060Z,7.95
2023-05-10T11:46:04.293Z,7.97
2023-05-10T11:47:06.756Z,7.97
2023-05-10T11:48:09.090Z,8.73
2023-05-10T11:49:11.335Z,7.63
2023-05-10T11:50:13.363Z,7.65
2023-05-10T11:51:15.427Z,7.32
2023-05-10T11:52:19.820Z,7.90
2023-05-10T11:53:23.256Z,8.98
2023-05-10T11:54:26.288Z,6.82
2023-05-10T11:55:28.370Z,6.25
2023-05-10T11:56:30.382Z,12.63
2023-05-10T11:57:32.708Z,6.40
2023-05-10T11:58:35.140Z,6.90
2023-05-10T11:59:37.903Z,6.50
2023-05-10T12:00:40.035Z,30.60
2023-05-10T12:01:42.825Z,16.85
2023-05-10T12:02:44.951Z,8.02
2023-05-10T12:03:47.098Z,9.18
2023-05-10T12:04:49.283Z,11.35
2023-05-10T12:05:51.434Z,6.38
2023-05-10T12:06:53.502Z,10.30
2023-05-10T12:08:11.649Z,8.52
2023-05-10T12:09:13.617Z,6.30
2023-05-10T12:10:16.423Z,5.97
2023-05-10T12:11:19.006Z,6.22
2023-05-10T12:12:21.063Z,5.10
2023-05-10T12:13:24.201Z,6.78
2023-05-10T12:14:26.289Z,31.52
2023-05-10T12:15:29.274Z,5.20
2023-05-10T12:16:31.456Z,5.28
2023-05-10T12:17:33.575Z,25.58
2023-05-10T12:18:35.548Z,9.35
2023-05-10T12:19:40.601Z,8.38
2023-05-10T12:20:42.726Z,7.90
2023-05-10T12:21:45.287Z,5.28
2023-05-10T12:22:47.951Z,5.00
2023-05-10T12:23:51.748Z,5.55
2023-05-10T12:24:53.756Z,5.15
2023-05-10T12:26:02.964Z,5.60
2023-05-10T12:27:09.571Z,6.57
2023-05-10T12:28:11.595Z,19.48
2023-05-10T12:29:14.840Z,10.95
2023-05-10T12:30:20.597Z,47.75
2023-05-10T12:31:22.797Z,17.33
2023-05-10T12:32:38.242Z,39.15
2023-05-10T12:33:43.708Z,19.50
2023-05-10T12:34:47.819Z,13.05
2023-05-10T12:35:50.796Z,17.10
2023-05-10T12:36:56.132Z,18.48
2023-05-10T12:37:58.094Z,9.30
2023-05-10T12:39:06.214Z,4.78
2023-05-10T12:40:09.423Z,5.45
2023-05-10T12:41:12.753Z,4.35
2023-05-10T12:42:14.745Z,4.32
2023-05-10T12:43:16.692Z,4.90
2023-05-10T12:44:19.155Z,4.70
2023-05-10T12:45:21.245Z,4.18
2023-05-10T12:46:26.600Z,4.50
2023-05-10T12:47:28.724Z,4.15
2023-05-10T12:48:32.372Z,3.97
2023-05-10T12:49:35.329Z,5.03
2023-05-10T12:50:37.300Z,22.58
2023-05-10T12:51:39.309Z,4.68
2023-05-10T12:52:41.563Z,12.73
2023-05-10T12:53:46.112Z,17.48
2023-05-10T12:54:50.351Z,40.65
2023-05-10T12:55:52.467Z,34.85
2023-05-10T12:56:54.474Z,29.40
2023-05-10T12:57:56.442Z,7.78
2023-05-10T12:58:58.410Z,5.88
2023-05-10T13:00:00.506Z,5.70
2023-05-10T13:01:02.626Z,5.43
2023-05-10T13:02:08.005Z,5.32
2023-05-10T13:03:10.177Z,5.18
2023-05-10T13:04:12.283Z,5.10
2023-05-10T13:05:14.545Z,4.63
2023-05-10T13:06:16.556Z,5.00
2023-05-10T13:07:18.458Z,5.03
2023-05-10T13:08:20.469Z,4.40
2023-05-10T13:09:22.565Z,3.83
2023-05-10T13:10:25.121Z,3.00
2023-05-10T13:11:27.256Z,2.33
2023-05-10T13:12:29.240Z,2.92
2023-05-10T13:13:31.207Z,2.50
2023-05-10T13:14:33.433Z,2.33
2023-05-10T13:15:35.699Z,2.30
2023-05-10T13:16:37.713Z,2.50
2023-05-10T13:17:41.986Z,2.53
2023-05-10T13:18:44.032Z,2.92
2023-05-10T13:19:46.056Z,2.55
2023-05-10T13:20:47.961Z,2.95
2023-05-10T13:21:49.927Z,3.03
2023-05-10T13:22:52.310Z,2.60
2023-05-10T13:23:54.463Z,2.58
2023-05-10T13:24:56.404Z,2.92
2023-05-10T13:25:58.618Z,2.88
2023-05-10T13:27:00.621Z,2.70
2023-05-10T13:28:02.964Z,2.85
2023-05-10T13:29:04.954Z,2.70
2023-05-10T13:30:07.405Z,2.85
2023-05-10T13:31:09.520Z,3.08
2023-05-10T13:32:11.587Z,2.40
2023-05-10T13:33:16.017Z,2.95
2023-05-10T13:34:21.576Z,3.03
2023-05-10T13:35:23.662Z,3.13
2023-05-10T13:36:25.652Z,2.92
2023-05-10T13:37:27.651Z,3.25
2023-05-10T13:38:29.574Z,3.15
2023-05-10T13:39:34.550Z,3.30
2023-05-10T13:40:37.223Z,3.60
2023-05-10T13:41:39.304Z,3.45
2023-05-10T13:42:41.296Z,3.67
2023-05-10T13:43:43.250Z,3.25
2023-05-10T13:44:45.550Z,3.58
2023-05-10T13:45:47.738Z,3.35
2023-05-10T13:46:49.814Z,3.83
2023-05-10T13:47:52.059Z,3.72